sensor_id;sensor_type;location;lat;lon;timestamp;P1;durP1;ratioP1;P2;durP2;ratioP2
46198;SDS011;31928;52.104;10.030;2023-06-14T03:48:23;2.22;;;2.13;;
46198;SDS011;31928;52.104;10.030;2023-06-14T03:50:50;2.50;;;2.30;;
46198;SDS011;31928;52.104;10.030;2023-06-14T03:53:17;2.53;;;2.33;;
46198;SDS011;31928;52.104;10.030;2023-06-14T03:55:46;2.92;;;2.65;;
46198;SDS011;31928;52.104;10.030;2023-06-14T03:58:18;2.60;;;2.45;;
46198;SDS011;31928;52.104;10.030;2023-06-14T04:00:45;2.63;;;2.45;;
46198;SDS011;31928;52.104;10.030;2023-06-14T04:03:12;3.17;;;2.88;;
46198;SDS011;31928;52.104;10.030;2023-06-14T04:05:46;2.28;;;2.17;;
46198;SDS011;31928;52.104;10.030;2023-06-14T04:08:15;2.45;;;2.28;;
46198;SDS011;31928;52.104;10.030;2023-06-14T04:10:45;2.40;;;2.30;;
46198;SDS011;31928;52.104;10.030;2023-06-14T04:13:12;2.38;;;2.28;;
46198;SDS011;31928;52.104;10.030;2023-06-14T04:15:39;2.42;;;2.22;;
46198;SDS011;31928;52.104;10.030;2023-06-14T04:18:08;2.53;;;2.38;;
46198;SDS011;31928;52.104;10.030;2023-06-14T04:20:35;2.30;;;2.10;;
46198;SDS011;31928;52.104;10.030;2023-06-14T04:23:11;1.95;;;1.85;;
46198;SDS011;31928;52.104;10.030;2023-06-14T04:25:39;2.13;;;2.03;;
46198;SDS011;31928;52.104;10.030;2023-06-14T04:28:06;3.45;;;2.35;;
46198;SDS011;31928;52.104;10.030;2023-06-14T04:30:37;2.45;;;2.25;;
46198;SDS011;31928;52.104;10.030;2023-06-14T04:33:05;2.40;;;2.30;;
46198;SDS011;31928;52.104;10.030;2023-06-14T04:35:32;3.00;;;2.60;;
46198;SDS011;31928;52.104;10.030;2023-06-14T04:37:59;2.72;;;2.63;;
46198;SDS011;31928;52.104;10.030;2023-06-14T04:40:25;2.65;;;2.45;;
46198;SDS011;31928;52.104;10.030;2023-06-14T04:42:52;2.20;;;2.05;;
46198;SDS011;31928;52.104;10.030;2023-06-14T04:45:19;4.80;;;3.08;;
46198;SDS011;31928;52.104;10.030;2023-06-14T04:47:45;2.70;;;2.50;;
46198;SDS011;31928;52.104;10.030;2023-06-14T04:50:12;3.20;;;2.88;;
46198;SDS011;31928;52.104;10.030;2023-06-14T04:52:39;2.30;;;2.20;;
46198;SDS011;31928;52.104;10.030;2023-06-14T04:55:12;4.25;;;2.42;;
46198;SDS011;31928;52.104;10.030;2023-06-14T04:57:40;3.00;;;2.58;;
46198;SDS011;31928;52.104;10.030;2023-06-14T05:02:34;2.67;;;2.45;;
46198;SDS011;31928;52.104;10.030;2023-06-14T05:05:02;2.58;;;2.25;;
46198;SDS011;31928;52.104;10.030;2023-06-14T05:07:29;2.50;;;2.25;;
46198;SDS011;31928;52.104;10.030;2023-06-14T05:09:55;2.50;;;2.30;;
46198;SDS011;31928;52.104;10.030;2023-06-14T05:12:22;2.90;;;2.63;;
46198;SDS011;31928;52.104;10.030;2023-06-14T05:14:49;2.88;;;2.47;;
46198;SDS011;31928;52.104;10.030;2023-06-14T05:17:16;2.70;;;2.50;;
46198;SDS011;31928;52.104;10.030;2023-06-14T05:19:44;2.15;;;2.05;;
46198;SDS011;31928;52.104;10.030;2023-06-14T05:22:10;3.03;;;2.83;;
46198;SDS011;31928;52.104;10.030;2023-06-14T05:24:37;5.90;;;2.65;;
46198;SDS011;31928;52.104;10.030;2023-06-14T05:27:04;3.97;;;2.70;;
46198;SDS011;31928;52.104;10.030;2023-06-14T05:29:32;2.40;;;2.20;;
46198;SDS011;31928;52.104;10.030;2023-06-14T05:31:58;2.45;;;2.25;;
46198;SDS011;31928;52.104;10.030;2023-06-14T05:34:25;2.75;;;2.55;;
46198;SDS011;31928;52.104;10.030;2023-06-14T05:36:52;2.90;;;2.70;;
46198;SDS011;31928;52.104;10.030;2023-06-14T05:39:18;2.38;;;2.28;;
46198;SDS011;31928;52.104;10.030;2023-06-14T05:41:45;2.53;;;2.33;;
46198;SDS011;31928;52.104;10.030;2023-06-14T05:44:14;3.80;;;3.10;;
46198;SDS011;31928;52.104;10.030;2023-06-14T05:46:41;2.88;;;2.67;;
46198;SDS011;31928;52.104;10.030;2023-06-14T05:49:08;2.58;;;2.38;;
46198;SDS011;31928;52.104;10.030;2023-06-14T05:51:35;2.45;;;2.25;;
46198;SDS011;31928;52.104;10.030;2023-06-14T05:54:01;2.25;;;2.15;;
46198;SDS011;31928;52.104;10.030;2023-06-14T05:56:28;2.97;;;2.67;;
46198;SDS011;31928;52.104;10.030;2023-06-14T05:58:56;2.45;;;2.28;;
46198;SDS011;31928;52.104;10.030;2023-06-14T06:01:22;2.53;;;2.42;;
46198;SDS011;31928;52.104;10.030;2023-06-14T06:03:49;2.67;;;2.47;;
46198;SDS011;31928;52.104;10.030;2023-06-14T06:06:16;2.50;;;2.40;;
46198;SDS011;31928;52.104;10.030;2023-06-14T06:08:43;2.50;;;2.30;;
46198;SDS011;31928;52.104;10.030;2023-06-14T06:11:10;2.42;;;2.25;;
46198;SDS011;31928;52.104;10.030;2023-06-14T06:13:37;2.60;;;2.40;;
46198;SDS011;31928;52.104;10.030;2023-06-14T06:16:05;2.53;;;2.33;;
46198;SDS011;31928;52.104;10.030;2023-06-14T06:18:32;5.35;;;2.70;;
46198;SDS011;31928;52.104;10.030;2023-06-14T06:20:59;2.60;;;2.40;;
46198;SDS011;31928;52.104;10.030;2023-06-14T06:23:25;2.40;;;2.30;;
46198;SDS011;31928;52.104;10.030;2023-06-14T06:25:52;2.72;;;2.53;;
46198;SDS011;31928;52.104;10.030;2023-06-14T06:28:19;2.70;;;2.50;;
46198;SDS011;31928;52.104;10.030;2023-06-14T06:30:46;2.65;;;2.30;;
46198;SDS011;31928;52.104;10.030;2023-06-14T06:33:13;2.45;;;2.25;;
46198;SDS011;31928;52.104;10.030;2023-06-14T06:35:40;2.78;;;2.58;;
46198;SDS011;31928;52.104;10.030;2023-06-14T06:38:07;2.78;;;2.58;;
46198;SDS011;31928;52.104;10.030;2023-06-14T06:40:35;2.20;;;2.10;;
46198;SDS011;31928;52.104;10.030;2023-06-14T06:43:02;2.20;;;2.08;;
46198;SDS011;31928;52.104;10.030;2023-06-14T06:45:29;2.50;;;2.35;;
46198;SDS011;31928;52.104;10.030;2023-06-14T06:47:56;2.67;;;2.47;;
46198;SDS011;31928;52.104;10.030;2023-06-14T06:50:23;2.65;;;2.45;;
46198;SDS011;31928;52.104;10.030;2023-06-14T06:52:52;3.20;;;2.90;;
46198;SDS011;31928;52.104;10.030;2023-06-14T06:55:20;2.40;;;2.30;;
46198;SDS011;31928;52.104;10.030;2023-06-14T06:57:46;2.30;;;2.20;;
46198;SDS011;31928;52.104;10.030;2023-06-14T07:00:13;2.28;;;2.17;;
46198;SDS011;31928;52.104;10.030;2023-06-14T07:02:40;3.00;;;2.83;;
46198;SDS011;31928;52.104;10.030;2023-06-14T07:05:07;2.40;;;2.30;;
46198;SDS011;31928;52.104;10.030;2023-06-14T07:07:34;2.65;;;2.45;;
46198;SDS011;31928;52.104;10.030;2023-06-14T07:10:01;2.30;;;2.20;;
46198;SDS011;31928;52.104;10.030;2023-06-14T07:12:31;2.95;;;2.75;;
46198;SDS011;31928;52.104;10.030;2023-06-14T07:15:00;3.08;;;2.17;;
46198;SDS011;31928;52.104;10.030;2023-06-14T07:17:27;2.65;;;2.45;;
46198;SDS011;31928;52.104;10.030;2023-06-14T07:19:54;2.58;;;2.40;;
46198;SDS011;31928;52.104;10.030;2023-06-14T07:22:20;3.17;;;2.60;;
46198;SDS011;31928;52.104;10.030;2023-06-14T07:24:47;2.60;;;2.40;;
46198;SDS011;31928;52.104;10.030;2023-06-14T07:27:14;2.60;;;2.40;;
46198;SDS011;31928;52.104;10.030;2023-06-14T07:29:41;2.28;;;2.10;;
46198;SDS011;31928;52.104;10.030;2023-06-14T07:32:07;2.35;;;2.15;;
46198;SDS011;31928;52.104;10.030;2023-06-14T07:34:34;2.50;;;2.30;;
46198;SDS011;31928;52.104;10.030;2023-06-14T07:37:01;1.98;;;1.88;;
46198;SDS011;31928;52.104;10.030;2023-06-14T07:39:27;2.33;;;2.10;;
46198;SDS011;31928;52.104;10.030;2023-06-14T07:41:54;2.35;;;2.25;;
46198;SDS011;31928;52.104;10.030;2023-06-14T07:44:20;2.72;;;2.53;;
46198;SDS011;31928;52.104;10.030;2023-06-14T07:46:47;3.75;;;2.72;;
46198;SDS011;31928;52.104;10.030;2023-06-14T07:49:15;2.83;;;2.58;;
46198;SDS011;31928;52.104;10.030;2023-06-14T07:51:42;2.50;;;2.30;;
46198;SDS011;31928;52.104;10.030;2023-06-14T07:54:10;2.65;;;2.30;;
46198;SDS011;31928;52.104;10.030;2023-06-14T07:56:37;2.50;;;2.30;;
46198;SDS011;31928;52.104;10.030;2023-06-14T07:59:04;5.32;;;2.65;;
46198;SDS011;31928;52.104;10.030;2023-06-14T08:01:32;2.28;;;2.08;;
46198;SDS011;31928;52.104;10.030;2023-06-14T08:03:59;2.30;;;2.13;;
46198;SDS011;31928;52.104;10.030;2023-06-14T08:06:26;2.50;;;2.30;;
46198;SDS011;31928;52.104;10.030;2023-06-14T08:08:53;2.20;;;2.00;;
46198;SDS011;31928;52.104;10.030;2023-06-14T08:11:20;3.50;;;2.55;;
46198;SDS011;31928;52.104;10.030;2023-06-14T08:13:47;2.25;;;2.13;;
46198;SDS011;31928;52.104;10.030;2023-06-14T08:16:13;2.40;;;2.28;;
46198;SDS011;31928;52.104;10.030;2023-06-14T08:18:40;2.15;;;2.05;;
46198;SDS011;31928;52.104;10.030;2023-06-14T08:21:07;1.90;;;1.80;;
46198;SDS011;31928;52.104;10.030;2023-06-14T08:23:33;2.10;;;1.98;;
46198;SDS011;31928;52.104;10.030;2023-06-14T08:26:00;2.00;;;1.90;;
46198;SDS011;31928;52.104;10.030;2023-06-14T08:28:27;2.38;;;2.17;;
46198;SDS011;31928;52.104;10.030;2023-06-14T08:30:54;2.20;;;2.00;;
46198;SDS011;31928;52.104;10.030;2023-06-14T08:33:21;2.63;;;1.98;;
46198;SDS011;31928;52.104;10.030;2023-06-14T08:35:48;2.00;;;1.90;;
46198;SDS011;31928;52.104;10.030;2023-06-14T08:38:15;2.08;;;1.88;;
46198;SDS011;31928;52.104;10.030;2023-06-14T08:40:42;2.13;;;1.90;;
46198;SDS011;31928;52.104;10.030;2023-06-14T08:43:08;2.03;;;1.70;;
46198;SDS011;31928;52.104;10.030;2023-06-14T08:45:35;2.22;;;1.95;;
46198;SDS011;31928;52.104;10.030;2023-06-14T08:48:02;2.08;;;1.98;;
46198;SDS011;31928;52.104;10.030;2023-06-14T08:50:32;1.70;;;1.60;;
46198;SDS011;31928;52.104;10.030;2023-06-14T08:53:01;1.83;;;1.73;;
46198;SDS011;31928;52.104;10.030;2023-06-14T08:55:30;1.88;;;1.77;;
46198;SDS011;31928;52.104;10.030;2023-06-14T08:58:01;2.00;;;1.80;;
46198;SDS011;31928;52.104;10.030;2023-06-14T09:00:30;2.30;;;2.10;;
46198;SDS011;31928;52.104;10.030;2023-06-14T09:02:59;2.50;;;1.80;;
46198;SDS011;31928;52.104;10.030;2023-06-14T09:05:27;2.15;;;1.88;;
46198;SDS011;31928;52.104;10.030;2023-06-14T09:07:55;1.92;;;1.83;;
46198;SDS011;31928;52.104;10.030;2023-06-14T09:10:22;2.10;;;1.98;;
46198;SDS011;31928;52.104;10.030;2023-06-14T09:12:53;2.20;;;2.10;;
46198;SDS011;31928;52.104;10.030;2023-06-14T09:15:19;2.15;;;1.75;;
46198;SDS011;31928;52.104;10.030;2023-06-14T09:17:47;2.53;;;1.63;;
46198;SDS011;31928;52.104;10.030;2023-06-14T09:20:14;1.70;;;1.60;;
46198;SDS011;31928;52.104;10.030;2023-06-14T09:22:46;1.70;;;1.60;;
46198;SDS011;31928;52.104;10.030;2023-06-14T09:25:13;1.92;;;1.70;;
46198;SDS011;31928;52.104;10.030;2023-06-14T09:28:01;1.60;;;1.50;;
46198;SDS011;31928;52.104;10.030;2023-06-14T09:30:28;1.95;;;1.85;;
46198;SDS011;31928;52.104;10.030;2023-06-14T09:32:55;1.70;;;1.60;;
46198;SDS011;31928;52.104;10.030;2023-06-14T09:35:26;1.70;;;1.60;;
46198;SDS011;31928;52.104;10.030;2023-06-14T09:37:56;1.42;;;1.33;;
46198;SDS011;31928;52.104;10.030;2023-06-14T09:40:23;1.60;;;1.50;;
46198;SDS011;31928;52.104;10.030;2023-06-14T09:42:50;1.42;;;1.35;;
46198;SDS011;31928;52.104;10.030;2023-06-14T09:45:18;1.65;;;1.55;;
46198;SDS011;31928;52.104;10.030;2023-06-14T09:47:51;1.65;;;1.55;;
46198;SDS011;31928;52.104;10.030;2023-06-14T09:50:32;2.60;;;1.70;;
46198;SDS011;31928;52.104;10.030;2023-06-14T09:53:02;1.67;;;1.58;;
46198;SDS011;31928;52.104;10.030;2023-06-14T09:55:34;1.88;;;1.77;;
46198;SDS011;31928;52.104;10.030;2023-06-14T09:58:06;1.70;;;1.60;;
46198;SDS011;31928;52.104;10.030;2023-06-14T10:00:34;1.48;;;1.38;;
46198;SDS011;31928;52.104;10.030;2023-06-14T10:03:06;1.63;;;1.52;;
46198;SDS011;31928;52.104;10.030;2023-06-14T10:05:38;1.77;;;1.48;;
46198;SDS011;31928;52.104;10.030;2023-06-14T10:08:08;1.70;;;1.60;;
46198;SDS011;31928;52.104;10.030;2023-06-14T10:10:38;1.80;;;1.70;;
46198;SDS011;31928;52.104;10.030;2023-06-14T10:13:06;1.58;;;1.48;;
46198;SDS011;31928;52.104;10.030;2023-06-14T10:18:40;1.70;;;1.60;;
46198;SDS011;31928;52.104;10.030;2023-06-14T10:21:13;1.70;;;1.60;;
46198;SDS011;31928;52.104;10.030;2023-06-14T10:23:51;1.70;;;1.60;;
46198;SDS011;31928;52.104;10.030;2023-06-14T10:26:19;2.17;;;1.98;;
46198;SDS011;31928;52.104;10.030;2023-06-14T10:28:56;2.10;;;1.50;;
46198;SDS011;31928;52.104;10.030;2023-06-14T10:31:41;1.50;;;1.40;;
46198;SDS011;31928;52.104;10.030;2023-06-14T10:34:09;1.73;;;1.63;;
46198;SDS011;31928;52.104;10.030;2023-06-14T10:36:37;1.40;;;1.23;;
46198;SDS011;31928;52.104;10.030;2023-06-14T10:39:16;2.05;;;1.40;;
46198;SDS011;31928;52.104;10.030;2023-06-14T10:41:51;1.52;;;1.42;;
46198;SDS011;31928;52.104;10.030;2023-06-14T10:46:46;1.63;;;1.52;;
46198;SDS011;31928;52.104;10.030;2023-06-14T10:49:17;1.98;;;1.83;;
46198;SDS011;31928;52.104;10.030;2023-06-14T10:51:50;1.63;;;1.52;;
46198;SDS011;31928;52.104;10.030;2023-06-14T10:54:21;1.60;;;1.50;;
46198;SDS011;31928;52.104;10.030;2023-06-14T10:56:49;1.45;;;1.35;;
46198;SDS011;31928;52.104;10.030;2023-06-14T10:59:17;1.70;;;1.50;;
46198;SDS011;31928;52.104;10.030;2023-06-14T11:02:00;2.85;;;1.50;;
46198;SDS011;31928;52.104;10.030;2023-06-14T11:04:48;3.42;;;1.65;;
46198;SDS011;31928;52.104;10.030;2023-06-14T11:10:26;2.10;;;1.55;;
46198;SDS011;31928;52.104;10.030;2023-06-14T11:13:06;2.53;;;1.60;;
46198;SDS011;31928;52.104;10.030;2023-06-14T11:15:34;2.95;;;1.48;;
46198;SDS011;31928;52.104;10.030;2023-06-14T11:18:04;1.98;;;1.85;;
46198;SDS011;31928;52.104;10.030;2023-06-14T11:20:33;1.83;;;1.63;;
46198;SDS011;31928;52.104;10.030;2023-06-14T11:23:02;2.13;;;2.03;;
46198;SDS011;31928;52.104;10.030;2023-06-14T11:25:29;1.70;;;1.60;;
46198;SDS011;31928;52.104;10.030;2023-06-14T11:27:56;1.70;;;1.60;;
46198;SDS011;31928;52.104;10.030;2023-06-14T11:30:24;1.90;;;1.80;;
46198;SDS011;31928;52.104;10.030;2023-06-14T11:32:55;2.35;;;1.98;;
46198;SDS011;31928;52.104;10.030;2023-06-14T11:35:24;2.45;;;1.75;;
46198;SDS011;31928;52.104;10.030;2023-06-14T11:37:55;2.42;;;2.22;;
46198;SDS011;31928;52.104;10.030;2023-06-14T11:40:26;2.25;;;2.10;;
46198;SDS011;31928;52.104;10.030;2023-06-14T11:42:58;2.00;;;1.80;;
46198;SDS011;31928;52.104;10.030;2023-06-14T11:45:28;1.70;;;1.60;;
46198;SDS011;31928;52.104;10.030;2023-06-14T11:47:57;2.10;;;1.90;;
46198;SDS011;31928;52.104;10.030;2023-06-14T11:50:25;2.00;;;1.90;;
46198;SDS011;31928;52.104;10.030;2023-06-14T11:52:56;1.90;;;1.80;;
46198;SDS011;31928;52.104;10.030;2023-06-14T11:55:24;2.67;;;1.90;;
46198;SDS011;31928;52.104;10.030;2023-06-14T11:57:51;3.95;;;2.03;;
46198;SDS011;31928;52.104;10.030;2023-06-14T12:00:24;2.42;;;2.22;;
46198;SDS011;31928;52.104;10.030;2023-06-14T12:02:52;2.30;;;2.20;;
46198;SDS011;31928;52.104;10.030;2023-06-14T12:05:22;2.42;;;2.22;;
46198;SDS011;31928;52.104;10.030;2023-06-14T12:07:50;2.75;;;2.35;;
46198;SDS011;31928;52.104;10.030;2023-06-14T12:10:19;2.58;;;2.38;;
46198;SDS011;31928;52.104;10.030;2023-06-14T12:12:46;3.45;;;2.40;;
46198;SDS011;31928;52.104;10.030;2023-06-14T12:15:13;2.47;;;2.28;;
46198;SDS011;31928;52.104;10.030;2023-06-14T12:17:41;2.33;;;2.13;;
46198;SDS011;31928;52.104;10.030;2023-06-14T12:20:10;2.55;;;2.35;;
46198;SDS011;31928;52.104;10.030;2023-06-14T12:22:50;2.40;;;2.20;;
46198;SDS011;31928;52.104;10.030;2023-06-14T12:27:54;2.25;;;2.05;;
46198;SDS011;31928;52.104;10.030;2023-06-14T12:30:21;2.47;;;2.28;;
46198;SDS011;31928;52.104;10.030;2023-06-14T12:32:48;2.22;;;2.03;;
46198;SDS011;31928;52.104;10.030;2023-06-14T12:35:15;4.72;;;2.50;;
46198;SDS011;31928;52.104;10.030;2023-06-14T12:37:42;2.70;;;2.50;;
46198;SDS011;31928;52.104;10.030;2023-06-14T12:40:09;3.08;;;2.10;;
46198;SDS011;31928;52.104;10.030;2023-06-14T12:42:38;3.22;;;2.42;;
46198;SDS011;31928;52.104;10.030;2023-06-14T12:45:04;2.20;;;2.00;;
46198;SDS011;31928;52.104;10.030;2023-06-14T12:47:32;2.83;;;2.10;;
46198;SDS011;31928;52.104;10.030;2023-06-14T12:49:58;2.38;;;2.20;;
46198;SDS011;31928;52.104;10.030;2023-06-14T12:52:25;3.05;;;2.20;;
46198;SDS011;31928;52.104;10.030;2023-06-14T12:54:52;2.70;;;2.50;;
46198;SDS011;31928;52.104;10.030;2023-06-14T12:57:19;2.60;;;2.25;;
46198;SDS011;31928;52.104;10.030;2023-06-14T12:59:46;2.40;;;2.20;;
46198;SDS011;31928;52.104;10.030;2023-06-14T13:02:19;3.03;;;2.40;;
46198;SDS011;31928;52.104;10.030;2023-06-14T13:04:51;3.92;;;2.30;;
46198;SDS011;31928;52.104;10.030;2023-06-14T13:07:18;2.90;;;2.30;;
46198;SDS011;31928;52.104;10.030;2023-06-14T13:09:45;3.30;;;2.70;;
46198;SDS011;31928;52.104;10.030;2023-06-14T13:12:11;2.85;;;2.63;;
46198;SDS011;31928;52.104;10.030;2023-06-14T13:14:41;2.83;;;2.63;;
46198;SDS011;31928;52.104;10.030;2023-06-14T13:17:08;2.40;;;2.22;;
46198;SDS011;31928;52.104;10.030;2023-06-14T13:19:36;3.47;;;2.53;;
46198;SDS011;31928;52.104;10.030;2023-06-14T13:22:03;3.97;;;2.38;;
46198;SDS011;31928;52.104;10.030;2023-06-14T13:24:30;2.50;;;2.30;;
46198;SDS011;31928;52.104;10.030;2023-06-14T13:26:57;2.40;;;2.20;;
46198;SDS011;31928;52.104;10.030;2023-06-14T13:29:24;2.50;;;2.25;;
46198;SDS011;31928;52.104;10.030;2023-06-14T13:31:52;2.50;;;2.30;;
46198;SDS011;31928;52.104;10.030;2023-06-14T13:34:22;2.15;;;2.03;;
46198;SDS011;31928;52.104;10.030;2023-06-14T13:36:49;2.30;;;2.13;;
46198;SDS011;31928;52.104;10.030;2023-06-14T13:39:16;2.38;;;2.17;;
46198;SDS011;31928;52.104;10.030;2023-06-14T13:41:42;2.10;;;2.00;;
46198;SDS011;31928;52.104;10.030;2023-06-14T13:44:09;2.13;;;1.92;;
46198;SDS011;31928;52.104;10.030;2023-06-14T13:46:42;3.88;;;2.10;;
46198;SDS011;31928;52.104;10.030;2023-06-14T13:49:09;3.55;;;2.42;;
46198;SDS011;31928;52.104;10.030;2023-06-14T13:51:36;2.95;;;2.40;;
46198;SDS011;31928;52.104;10.030;2023-06-14T13:54:03;2.05;;;1.90;;
46198;SDS011;31928;52.104;10.030;2023-06-14T13:56:30;2.38;;;2.20;;
46198;SDS011;31928;52.104;10.030;2023-06-14T13:58:57;2.10;;;2.00;;
46198;SDS011;31928;52.104;10.030;2023-06-14T14:01:24;2.47;;;2.28;;
46198;SDS011;31928;52.104;10.030;2023-06-14T14:03:52;2.10;;;2.00;;
46198;SDS011;31928;52.104;10.030;2023-06-14T14:06:18;2.60;;;2.40;;
46198;SDS011;31928;52.104;10.030;2023-06-14T14:08:45;2.20;;;2.00;;
46198;SDS011;31928;52.104;10.030;2023-06-14T14:11:12;2.50;;;2.30;;
46198;SDS011;31928;52.104;10.030;2023-06-14T14:13:39;2.10;;;2.00;;
46198;SDS011;31928;52.104;10.030;2023-06-14T14:16:07;2.33;;;2.13;;
46198;SDS011;31928;52.104;10.030;2023-06-14T14:18:34;2.33;;;2.13;;
46198;SDS011;31928;52.104;10.030;2023-06-14T14:21:01;2.63;;;2.22;;
46198;SDS011;31928;52.104;10.030;2023-06-14T14:23:28;3.15;;;2.40;;
46198;SDS011;31928;52.104;10.030;2023-06-14T14:25:55;2.80;;;2.60;;
46198;SDS011;31928;52.104;10.030;2023-06-14T14:28:22;2.40;;;2.20;;
46198;SDS011;31928;52.104;10.030;2023-06-14T14:30:48;3.22;;;2.90;;
46198;SDS011;31928;52.104;10.030;2023-06-14T14:33:15;2.97;;;2.63;;
46198;SDS011;31928;52.104;10.030;2023-06-14T14:35:43;2.42;;;2.22;;
46198;SDS011;31928;52.104;10.030;2023-06-14T14:38:14;3.15;;;2.13;;
46198;SDS011;31928;52.104;10.030;2023-06-14T14:40:44;4.68;;;2.45;;
46198;SDS011;31928;52.104;10.030;2023-06-14T14:43:11;2.50;;;2.30;;
46198;SDS011;31928;52.104;10.030;2023-06-14T14:45:38;3.65;;;2.13;;
46198;SDS011;31928;52.104;10.030;2023-06-14T14:48:04;2.50;;;2.25;;
46198;SDS011;31928;52.104;10.030;2023-06-14T14:50:32;2.80;;;2.50;;
46198;SDS011;31928;52.104;10.030;2023-06-14T14:52:59;4.30;;;2.45;;
46198;SDS011;31928;52.104;10.030;2023-06-14T14:55:26;2.35;;;2.17;;
46198;SDS011;31928;52.104;10.030;2023-06-14T14:57:53;2.50;;;2.30;;
46198;SDS011;31928;52.104;10.030;2023-06-14T15:00:19;2.45;;;2.25;;
46198;SDS011;31928;52.104;10.030;2023-06-14T15:02:46;3.17;;;2.40;;
46198;SDS011;31928;52.104;10.030;2023-06-14T15:05:13;2.67;;;2.47;;
46198;SDS011;31928;52.104;10.030;2023-06-14T15:07:40;2.47;;;2.28;;
46198;SDS011;31928;52.104;10.030;2023-06-14T15:10:07;3.10;;;2.90;;
46198;SDS011;31928;52.104;10.030;2023-06-14T15:12:34;2.83;;;2.42;;
46198;SDS011;31928;52.104;10.030;2023-06-14T15:15:01;3.00;;;2.80;;
46198;SDS011;31928;52.104;10.030;2023-06-14T15:17:28;2.47;;;2.28;;
46198;SDS011;31928;52.104;10.030;2023-06-14T15:19:55;3.83;;;2.80;;
46198;SDS011;31928;52.104;10.030;2023-06-14T15:22:22;2.40;;;2.20;;
46198;SDS011;31928;52.104;10.030;2023-06-14T15:24:49;3.30;;;2.60;;
46198;SDS011;31928;52.104;10.030;2023-06-14T15:27:16;2.75;;;2.55;;
46198;SDS011;31928;52.104;10.030;2023-06-14T15:29:43;2.50;;;2.30;;
46198;SDS011;31928;52.104;10.030;2023-06-14T15:32:12;2.20;;;2.10;;
46198;SDS011;31928;52.104;10.030;2023-06-14T15:34:39;2.85;;;2.65;;
46198;SDS011;31928;52.104;10.030;2023-06-14T15:37:06;2.60;;;2.10;;
46198;SDS011;31928;52.104;10.030;2023-06-14T15:39:33;2.97;;;2.10;;
46198;SDS011;31928;52.104;10.030;2023-06-14T15:42:00;2.67;;;2.40;;
46198;SDS011;31928;52.104;10.030;2023-06-14T15:44:27;2.63;;;2.42;;
46198;SDS011;31928;52.104;10.030;2023-06-14T15:46:54;3.88;;;2.35;;
46198;SDS011;31928;52.104;10.030;2023-06-14T15:49:21;2.85;;;2.20;;
46198;SDS011;31928;52.104;10.030;2023-06-14T15:51:47;2.67;;;2.08;;
46198;SDS011;31928;52.104;10.030;2023-06-14T15:54:14;2.55;;;2.35;;
46198;SDS011;31928;52.104;10.030;2023-06-14T15:56:41;2.70;;;2.50;;
46198;SDS011;31928;52.104;10.030;2023-06-14T15:59:08;4.25;;;2.65;;
46198;SDS011;31928;52.104;10.030;2023-06-14T16:01:34;2.95;;;2.67;;
46198;SDS011;31928;52.104;10.030;2023-06-14T16:04:01;2.40;;;2.20;;
46198;SDS011;31928;52.104;10.030;2023-06-14T16:06:28;3.05;;;2.42;;
46198;SDS011;31928;52.104;10.030;2023-06-14T16:08:54;2.65;;;2.15;;
46198;SDS011;31928;52.104;10.030;2023-06-14T16:11:21;2.50;;;2.30;;
46198;SDS011;31928;52.104;10.030;2023-06-14T16:13:48;2.92;;;2.53;;
46198;SDS011;31928;52.104;10.030;2023-06-14T16:16:14;3.08;;;2.65;;
46198;SDS011;31928;52.104;10.030;2023-06-14T16:18:41;2.30;;;1.98;;
46198;SDS011;31928;52.104;10.030;2023-06-14T16:21:08;2.70;;;2.50;;
46198;SDS011;31928;52.104;10.030;2023-06-14T16:23:36;2.55;;;2.35;;
46198;SDS011;31928;52.104;10.030;2023-06-14T16:26:03;2.58;;;2.38;;
46198;SDS011;31928;52.104;10.030;2023-06-14T16:28:31;3.60;;;2.47;;
46198;SDS011;31928;52.104;10.030;2023-06-14T16:30:58;3.25;;;2.50;;
46198;SDS011;31928;52.104;10.030;2023-06-14T16:33:25;2.30;;;2.00;;
46198;SDS011;31928;52.104;10.030;2023-06-14T16:35:51;2.65;;;2.45;;
46198;SDS011;31928;52.104;10.030;2023-06-14T16:38:18;2.55;;;2.33;;
46198;SDS011;31928;52.104;10.030;2023-06-14T16:40:47;2.50;;;2.30;;
46198;SDS011;31928;52.104;10.030;2023-06-14T16:43:14;3.05;;;2.55;;
46198;SDS011;31928;52.104;10.030;2023-06-14T16:45:41;3.42;;;2.58;;
46198;SDS011;31928;52.104;10.030;2023-06-14T16:48:08;3.42;;;2.70;;
46198;SDS011;31928;52.104;10.030;2023-06-14T16:50:35;4.95;;;2.70;;
46198;SDS011;31928;52.104;10.030;2023-06-14T16:53:03;3.78;;;2.85;;
46198;SDS011;31928;52.104;10.030;2023-06-14T16:55:29;4.85;;;2.90;;
46198;SDS011;31928;52.104;10.030;2023-06-14T16:57:58;4.38;;;3.83;;
46198;SDS011;31928;52.104;10.030;2023-06-14T17:00:24;4.80;;;4.05;;
46198;SDS011;31928;52.104;10.030;2023-06-14T17:02:53;3.40;;;3.10;;
46198;SDS011;31928;52.104;10.030;2023-06-14T17:05:23;3.85;;;2.97;;
46198;SDS011;31928;52.104;10.030;2023-06-14T17:07:50;4.03;;;3.60;;
46198;SDS011;31928;52.104;10.030;2023-06-14T17:10:17;4.22;;;3.83;;
46198;SDS011;31928;52.104;10.030;2023-06-14T17:12:44;4.13;;;3.00;;
46198;SDS011;31928;52.104;10.030;2023-06-14T17:15:10;5.68;;;5.18;;
46198;SDS011;31928;52.104;10.030;2023-06-14T17:17:37;5.03;;;4.53;;
46198;SDS011;31928;52.104;10.030;2023-06-14T17:20:04;4.35;;;3.95;;
46198;SDS011;31928;52.104;10.030;2023-06-14T17:22:32;3.78;;;3.40;;
46198;SDS011;31928;52.104;10.030;2023-06-14T17:24:58;4.65;;;3.08;;
46198;SDS011;31928;52.104;10.030;2023-06-14T17:27:25;3.38;;;3.08;;
46198;SDS011;31928;52.104;10.030;2023-06-14T17:29:52;7.93;;;7.13;;
46198;SDS011;31928;52.104;10.030;2023-06-14T17:32:18;11.52;;;10.38;;
46198;SDS011;31928;52.104;10.030;2023-06-14T17:34:45;32.33;;;26.02;;
46198;SDS011;31928;52.104;10.030;2023-06-14T17:37:12;19.45;;;14.63;;
46198;SDS011;31928;52.104;10.030;2023-06-14T17:39:38;12.02;;;9.18;;
46198;SDS011;31928;52.104;10.030;2023-06-14T17:42:07;6.15;;;5.55;;
46198;SDS011;31928;52.104;10.030;2023-06-14T17:44:34;4.47;;;3.80;;
46198;SDS011;31928;52.104;10.030;2023-06-14T17:47:01;3.65;;;3.35;;
46198;SDS011;31928;52.104;10.030;2023-06-14T17:49:28;2.75;;;2.53;;
46198;SDS011;31928;52.104;10.030;2023-06-14T17:51:55;2.80;;;2.60;;
46198;SDS011;31928;52.104;10.030;2023-06-14T17:54:21;2.72;;;2.50;;
46198;SDS011;31928;52.104;10.030;2023-06-14T17:56:48;3.33;;;2.45;;
46198;SDS011;31928;52.104;10.030;2023-06-14T17:59:14;2.75;;;2.50;;
46198;SDS011;31928;52.104;10.030;2023-06-14T18:01:41;2.58;;;2.38;;
46198;SDS011;31928;52.104;10.030;2023-06-14T18:04:08;4.43;;;2.55;;
46198;SDS011;31928;52.104;10.030;2023-06-14T18:06:34;2.28;;;2.13;;
46198;SDS011;31928;52.104;10.030;2023-06-14T18:09:01;4.05;;;3.40;;
46198;SDS011;31928;52.104;10.030;2023-06-14T18:11:28;2.50;;;2.30;;
46198;SDS011;31928;52.104;10.030;2023-06-14T18:13:57;2.70;;;2.50;;
46198;SDS011;31928;52.104;10.030;2023-06-14T18:16:25;2.17;;;2.03;;
46198;SDS011;31928;52.104;10.030;2023-06-14T18:18:52;2.80;;;2.50;;
46198;SDS011;31928;52.104;10.030;2023-06-14T18:21:20;2.60;;;2.40;;
46198;SDS011;31928;52.104;10.030;2023-06-14T18:23:47;2.70;;;2.50;;
46198;SDS011;31928;52.104;10.030;2023-06-14T18:26:21;2.70;;;2.45;;
46198;SDS011;31928;52.104;10.030;2023-06-14T18:28:48;2.70;;;2.50;;
46198;SDS011;31928;52.104;10.030;2023-06-14T18:31:16;2.55;;;2.35;;
46198;SDS011;31928;52.104;10.030;2023-06-14T18:33:43;5.47;;;3.35;;
46198;SDS011;31928;52.104;10.030;2023-06-14T18:36:10;3.00;;;2.70;;
46198;SDS011;31928;52.104;10.030;2023-06-14T18:38:37;3.97;;;2.38;;